Admiral Richard E. Bennis — WDB4785 — position and weather

sailwx.info

Track history (hours):
 
Tides and Currents Weather Stations Pressure Air Temp Water Temp Dewpoint Dewpoint Depression Visibility Wind Speed Wind Dir Waves Ship Positions

Admiral Richard E. Bennis

Owner: PORT IMPERIAL FERRY CORP, WEEHAWKEN, NJ. More information available from US FCC via Universal Licensing System and Coast Guard Vessel Documentation Center.

Last reported at 2015-Jan-31 02:10 UTC. Time now 2015-Jan-31 07:06 UTC.
Position N 40°42' W 074°00'.

Length 26 m.

Type: Passenger vessel. MMSI: 366902320.

Date/timePositionNaut miles runAvg speedWind from/ knotsBaromVisibWave heightAir tempDewpointWater temp
2015-Jan-31 02:10N 40°42' W 074°00'1715.5
2015-Jan-31 01:06N 40°26' W 074°05'1118.3
2015-Jan-31 00:32N 40°37' W 074°03'1010.5
2015-Jan-30 23:33N 40°47' W 074°01'4 4.4
2015-Jan-30 22:33N 40°42' W 074°00'4 4.1
2015-Jan-30 21:33N 40°46' W 074°01'0 0.0
2015-Jan-30 15:22N 40°46' W 074°01'1 0.8
2015-Jan-30 14:34N 40°46' W 074°00'4 3.9
2015-Jan-30 13:33N 40°42' W 074°01'1 0.3
2015-Jan-30 11:33N 40°42' W 074°00'12 1.1
2015-Jan-30 00:17N 40°30' W 074°04'1419.1
2015-Jan-29 23:33N 40°44' W 074°01'3 2.6
2015-Jan-29 22:34N 40°47' W 074°01'3 3.4
2015-Jan-29 21:33N 40°43' W 074°01'1 0.9
2015-Jan-29 20:34N 40°42' W 074°01'4 0.8
2015-Jan-29 15:21N 40°46' W 074°01'1 0.7
2015-Jan-29 14:33N 40°46' W 074°01'4 3.9
2015-Jan-29 13:34N 40°42' W 074°01'2 2.5
2015-Jan-29 12:34N 40°44' W 074°01'3 2.5
2015-Jan-29 11:34N 40°42' W 074°01'5 4.8
2015-Jan-29 10:34N 40°47' W 074°01'0 0.0
2015-Jan-29 09:34N 40°47' W 074°01'4 0.5
2015-Jan-29 00:33N 40°42' W 074°01'3 2.6
2015-Jan-28 23:34N 40°45' W 074°01'2 1.8
2015-Jan-28 22:34N 40°47' W 074°01'3 2.8
2015-Jan-28 21:34N 40°44' W 074°01'2 1.6
2015-Jan-28 20:34N 40°42' W 074°01'4 0.8
2015-Jan-28 15:16N 40°46' W 074°01'1 1.2
2015-Jan-28 14:33N 40°45' W 074°01'3 3.0
2015-Jan-28 13:34N 40°43' W 074°01'2 2.5
2015-Jan-28 12:33N 40°45' W 074°01'3 3.2
2015-Jan-28 11:34N 40°42' W 074°01'4 0.4
2015-Jan-28 00:04N 40°46' W 074°01'4 8.0
2015-Jan-27 23:33N 40°42' W 074°01'0 0.0
2015-Jan-27 22:33N 40°42' W 074°01'0 0.3
2015-Jan-27 21:33N 40°42' W 074°01'0 0.2
2015-Jan-27 20:33N 40°42' W 074°01'4 0.9
2015-Jan-27 16:05N 40°46' W 074°01'1 1.8
2015-Jan-27 15:33N 40°45' W 074°01'0 0.1
2015-Jan-27 14:33N 40°45' W 074°01'0 0.0
2015-Jan-27 13:34N 40°45' W 074°01'1 0.6
2015-Jan-27 12:33N 40°46' W 074°00'0 0.1
2015-Jan-27 11:33N 40°46' W 074°00'1 1.0
2015-Jan-27 10:33N 40°47' W 074°01'0 0.0
2015-Jan-27 01:27N 40°47' W 074°01'0 0.0
2015-Jan-27 00:33N 40°47' W 074°01'3 2.6
2015-Jan-26 23:34N 40°44' W 074°01'2 2.1
2015-Jan-26 22:34N 40°42' W 074°00'3 2.5
2015-Jan-26 21:34N 40°44' W 074°01'2 0.3
2015-Jan-26 15:17N 40°46' W 074°01'0 0.1
2015-Jan-26 14:33N 40°46' W 074°00'4 4.3
2015-Jan-26 13:34N 40°42' W 074°01'4 3.8
2015-Jan-26 12:33N 40°46' W 074°00'4 3.6
2015-Jan-26 11:34N 40°42' W 074°00'4 4.3
2015-Jan-26 10:34N 40°46' W 074°01'0 0.0
2015-Jan-26 09:34N 40°46' W 074°01'0 0.0
2015-Jan-26 08:33N 40°46' W 074°01'0 0.0
2015-Jan-26 07:34N 40°46' W 074°01'0 0.0
2015-Jan-26 06:34N 40°46' W 074°01'0 0.0
2015-Jan-26 05:34N 40°46' W 074°01'0 0.0
2015-Jan-26 04:34N 40°46' W 074°01'0 0.0
2015-Jan-26 03:34N 40°46' W 074°01'0 0.0
2015-Jan-26 02:33N 40°46' W 074°01'0 0.0
2015-Jan-26 01:34N 40°46' W 074°01'0 0.0
2015-Jan-26 00:34N 40°46' W 074°01'0 0.0
2015-Jan-25 23:34N 40°46' W 074°01'0 0.0
2015-Jan-25 22:33N 40°46' W 074°01'0 0.0
2015-Jan-25 21:33N 40°46' W 074°01'0 0.0
2015-Jan-25 20:34N 40°46' W 074°01'0 0.0
2015-Jan-25 19:33N 40°46' W 074°01'0 0.0
2015-Jan-25 18:34N 40°46' W 074°01'0 0.0
2015-Jan-25 17:33N 40°46' W 074°01'0 0.0
2015-Jan-25 16:34N 40°46' W 074°01'0 0.0
2015-Jan-25 15:34N 40°46' W 074°01'0 0.0
2015-Jan-25 14:33N 40°46' W 074°01'0 0.0
2015-Jan-25 13:34N 40°46' W 074°01'0 0.0
2015-Jan-25 12:34N 40°46' W 074°01'0 0.0
2015-Jan-25 11:33N 40°46' W 074°01'0 0.0
2015-Jan-25 10:34N 40°46' W 074°01'0 0.0
2015-Jan-25 09:34N 40°46' W 074°01'0 0.0
2015-Jan-25 08:34N 40°46' W 074°01'0 0.0
2015-Jan-25 07:33N 40°46' W 074°01'0 0.0
2015-Jan-25 06:33N 40°46' W 074°01'0 0.0
2015-Jan-25 05:34N 40°46' W 074°01'0 0.0
2015-Jan-25 04:33N 40°46' W 074°01'0 0.0
2015-Jan-25 03:34N 40°46' W 074°01'0 0.0
2015-Jan-25 02:33N 40°46' W 074°01'0 0.0
2015-Jan-25 01:33N 40°46' W 074°01'0 0.0
2015-Jan-25 00:34N 40°46' W 074°01'0 0.0
2015-Jan-24 23:34N 40°46' W 074°01'0 0.0
2015-Jan-24 22:34N 40°46' W 074°01'0 0.0
2015-Jan-24 21:34N 40°46' W 074°01'0 0.0
2015-Jan-24 20:34N 40°46' W 074°01'0 0.0
2015-Jan-24 19:33N 40°46' W 074°01'0 0.0
2015-Jan-24 18:34N 40°46' W 074°01'0 0.0
2015-Jan-24 17:34N 40°46' W 074°01'0 0.0
2015-Jan-24 16:34N 40°46' W 074°01'0 0.0
2015-Jan-24 15:34N 40°46' W 074°01'0 0.0
2015-Jan-24 14:33N 40°46' W 074°01'0 0.0
2015-Jan-24 13:34N 40°46' W 074°01'0 0.0
2015-Jan-24 12:33N 40°46' W 074°01'0 0.0
2015-Jan-24 11:34N 40°46' W 074°01'0 0.0
2015-Jan-24 10:34N 40°46' W 074°01'0 0.0
2015-Jan-24 09:34N 40°46' W 074°01'0 0.0
2015-Jan-24 08:33N 40°46' W 074°01'0 0.0
2015-Jan-24 07:34N 40°46' W 074°01'0 0.0
2015-Jan-24 06:34N 40°46' W 074°01'0 0.0
2015-Jan-24 05:33N 40°46' W 074°01'0 0.0
2015-Jan-24 01:04N 40°46' W 074°01'4 8.5
2015-Jan-24 00:34N 40°42' W 074°01'2 1.9
2015-Jan-23 23:34N 40°44' W 074°01'2 1.8
2015-Jan-23 22:33N 40°46' W 074°01'2 2.3
2015-Jan-23 21:34N 40°43' W 074°01'2 1.5
2015-Jan-23 20:34N 40°42' W 074°00'3 0.5
2015-Jan-23 15:07N 40°45' W 074°01'0 0.3
2015-Jan-23 14:27N 40°45' W 074°01'3 3.0
2015-Jan-23 13:34N 40°42' W 074°01'5 4.4
2015-Jan-23 12:32N 40°46' W 074°00'5 4.8
2015-Jan-23 11:34N 40°42' W 074°01'4 0.3
2015-Jan-22 22:31N 40°46' W 074°01'0 0.1
2015-Jan-22 21:32N 40°45' W 074°01'1 0.8
2015-Jan-22 20:23N 40°46' W 074°01'25 1.3
2015-Jan-22 01:31N 41°12' W 073°57'0 0.3
2015-Jan-22 00:34N 41°12' W 073°57'2 1.4
2015-Jan-21 23:27N 41°11' W 073°55'2 2.4
2015-Jan-21 22:50N 41°12' W 073°57'3 4.7
2015-Jan-21 22:16N 41°10' W 073°54'0 0.1
2015-Jan-21 21:27N 41°10' W 073°54'  
Track history (hours):
 
Tides and Currents Weather Stations Pressure Air Temp Water Temp Dewpoint Dewpoint Depression Visibility Wind Speed Wind Dir Waves Ship Positions

Admiral Richard E. Bennis

Owner: PORT IMPERIAL FERRY CORP, WEEHAWKEN, NJ. More information available from US FCC via Universal Licensing System and Coast Guard Vessel Documentation Center.

Last reported at 2015-Jan-31 02:10 UTC. Time now 2015-Jan-31 07:06 UTC.
Position N 40°42' W 074°00'.

Length 26 m.

Type: Passenger vessel. MMSI: 366902320.

Date/timePositionNaut miles runAvg speedWind from/ knotsBaromVisibWave heightAir tempDewpointWater temp
2015-Jan-31 02:10N 40°42' W 074°00'1715.5
2015-Jan-31 01:06N 40°26' W 074°05'1118.3
2015-Jan-31 00:32N 40°37' W 074°03'1010.5
2015-Jan-30 23:33N 40°47' W 074°01'4 4.4
2015-Jan-30 22:33N 40°42' W 074°00'4 4.1
2015-Jan-30 21:33N 40°46' W 074°01'0 0.0
2015-Jan-30 15:22N 40°46' W 074°01'1 0.8
2015-Jan-30 14:34N 40°46' W 074°00'4 3.9
2015-Jan-30 13:33N 40°42' W 074°01'1 0.3
2015-Jan-30 11:33N 40°42' W 074°00'12 1.1
2015-Jan-30 00:17N 40°30' W 074°04'1419.1
2015-Jan-29 23:33N 40°44' W 074°01'3 2.6
2015-Jan-29 22:34N 40°47' W 074°01'3 3.4
2015-Jan-29 21:33N 40°43' W 074°01'1 0.9
2015-Jan-29 20:34N 40°42' W 074°01'4 0.8
2015-Jan-29 15:21N 40°46' W 074°01'1 0.7
2015-Jan-29 14:33N 40°46' W 074°01'4 3.9
2015-Jan-29 13:34N 40°42' W 074°01'2 2.5
2015-Jan-29 12:34N 40°44' W 074°01'3 2.5
2015-Jan-29 11:34N 40°42' W 074°01'5 4.8
2015-Jan-29 10:34N 40°47' W 074°01'0 0.0
2015-Jan-29 09:34N 40°47' W 074°01'4 0.5
2015-Jan-29 00:33N 40°42' W 074°01'3 2.6
2015-Jan-28 23:34N 40°45' W 074°01'2 1.8
2015-Jan-28 22:34N 40°47' W 074°01'3 2.8
2015-Jan-28 21:34N 40°44' W 074°01'2 1.6
2015-Jan-28 20:34N 40°42' W 074°01'4 0.8
2015-Jan-28 15:16N 40°46' W 074°01'1 1.2
2015-Jan-28 14:33N 40°45' W 074°01'3 3.0
2015-Jan-28 13:34N 40°43' W 074°01'2 2.5
2015-Jan-28 12:33N 40°45' W 074°01'3 3.2
2015-Jan-28 11:34N 40°42' W 074°01'4 0.4
2015-Jan-28 00:04N 40°46' W 074°01'4 8.0
2015-Jan-27 23:33N 40°42' W 074°01'0 0.0
2015-Jan-27 22:33N 40°42' W 074°01'0 0.3
2015-Jan-27 21:33N 40°42' W 074°01'0 0.2
2015-Jan-27 20:33N 40°42' W 074°01'4 0.9
2015-Jan-27 16:05N 40°46' W 074°01'1 1.8
2015-Jan-27 15:33N 40°45' W 074°01'0 0.1
2015-Jan-27 14:33N 40°45' W 074°01'0 0.0
2015-Jan-27 13:34N 40°45' W 074°01'1 0.6
2015-Jan-27 12:33N 40°46' W 074°00'0 0.1
2015-Jan-27 11:33N 40°46' W 074°00'1 1.0
2015-Jan-27 10:33N 40°47' W 074°01'0 0.0
2015-Jan-27 01:27N 40°47' W 074°01'0 0.0
2015-Jan-27 00:33N 40°47' W 074°01'3 2.6
2015-Jan-26 23:34N 40°44' W 074°01'2 2.1
2015-Jan-26 22:34N 40°42' W 074°00'3 2.5
2015-Jan-26 21:34N 40°44' W 074°01'2 0.3
2015-Jan-26 15:17N 40°46' W 074°01'0 0.1
2015-Jan-26 14:33N 40°46' W 074°00'4 4.3
2015-Jan-26 13:34N 40°42' W 074°01'4 3.8
2015-Jan-26 12:33N 40°46' W 074°00'4 3.6
2015-Jan-26 11:34N 40°42' W 074°00'4 4.3
2015-Jan-26 10:34N 40°46' W 074°01'0 0.0
2015-Jan-26 09:34N 40°46' W 074°01'0 0.0
2015-Jan-26 08:33N 40°46' W 074°01'0 0.0
2015-Jan-26 07:34N 40°46' W 074°01'0 0.0
2015-Jan-26 06:34N 40°46' W 074°01'0 0.0
2015-Jan-26 05:34N 40°46' W 074°01'0 0.0
2015-Jan-26 04:34N 40°46' W 074°01'0 0.0
2015-Jan-26 03:34N 40°46' W 074°01'0 0.0
2015-Jan-26 02:33N 40°46' W 074°01'0 0.0
2015-Jan-26 01:34N 40°46' W 074°01'0 0.0
2015-Jan-26 00:34N 40°46' W 074°01'0 0.0
2015-Jan-25 23:34N 40°46' W 074°01'0 0.0
2015-Jan-25 22:33N 40°46' W 074°01'0 0.0
2015-Jan-25 21:33N 40°46' W 074°01'0 0.0
2015-Jan-25 20:34N 40°46' W 074°01'0 0.0
2015-Jan-25 19:33N 40°46' W 074°01'0 0.0
2015-Jan-25 18:34N 40°46' W 074°01'0 0.0
2015-Jan-25 17:33N 40°46' W 074°01'0 0.0
2015-Jan-25 16:34N 40°46' W 074°01'0 0.0
2015-Jan-25 15:34N 40°46' W 074°01'0 0.0
2015-Jan-25 14:33N 40°46' W 074°01'0 0.0
2015-Jan-25 13:34N 40°46' W 074°01'0 0.0
2015-Jan-25 12:34N 40°46' W 074°01'0 0.0
2015-Jan-25 11:33N 40°46' W 074°01'0 0.0
2015-Jan-25 10:34N 40°46' W 074°01'0 0.0
2015-Jan-25 09:34N 40°46' W 074°01'0 0.0
2015-Jan-25 08:34N 40°46' W 074°01'0 0.0
2015-Jan-25 07:33N 40°46' W 074°01'0 0.0
2015-Jan-25 06:33N 40°46' W 074°01'0 0.0
2015-Jan-25 05:34N 40°46' W 074°01'0 0.0
2015-Jan-25 04:33N 40°46' W 074°01'0 0.0
2015-Jan-25 03:34N 40°46' W 074°01'0 0.0
2015-Jan-25 02:33N 40°46' W 074°01'0 0.0
2015-Jan-25 01:33N 40°46' W 074°01'0 0.0
2015-Jan-25 00:34N 40°46' W 074°01'0 0.0
2015-Jan-24 23:34N 40°46' W 074°01'0 0.0
2015-Jan-24 22:34N 40°46' W 074°01'0 0.0
2015-Jan-24 21:34N 40°46' W 074°01'0 0.0
2015-Jan-24 20:34N 40°46' W 074°01'0 0.0
2015-Jan-24 19:33N 40°46' W 074°01'0 0.0
2015-Jan-24 18:34N 40°46' W 074°01'0 0.0
2015-Jan-24 17:34N 40°46' W 074°01'0 0.0
2015-Jan-24 16:34N 40°46' W 074°01'0 0.0
2015-Jan-24 15:34N 40°46' W 074°01'0 0.0
2015-Jan-24 14:33N 40°46' W 074°01'0 0.0
2015-Jan-24 13:34N 40°46' W 074°01'0 0.0
2015-Jan-24 12:33N 40°46' W 074°01'0 0.0
2015-Jan-24 11:34N 40°46' W 074°01'0 0.0
2015-Jan-24 10:34N 40°46' W 074°01'0 0.0
2015-Jan-24 09:34N 40°46' W 074°01'0 0.0
2015-Jan-24 08:33N 40°46' W 074°01'0 0.0
2015-Jan-24 07:34N 40°46' W 074°01'0 0.0
2015-Jan-24 06:34N 40°46' W 074°01'0 0.0
2015-Jan-24 05:33N 40°46' W 074°01'0 0.0
2015-Jan-24 01:04N 40°46' W 074°01'4 8.5
2015-Jan-24 00:34N 40°42' W 074°01'2 1.9
2015-Jan-23 23:34N 40°44' W 074°01'2 1.8
2015-Jan-23 22:33N 40°46' W 074°01'2 2.3
2015-Jan-23 21:34N 40°43' W 074°01'2 1.5
2015-Jan-23 20:34N 40°42' W 074°00'3 0.5
2015-Jan-23 15:07N 40°45' W 074°01'0 0.3
2015-Jan-23 14:27N 40°45' W 074°01'3 3.0
2015-Jan-23 13:34N 40°42' W 074°01'5 4.4
2015-Jan-23 12:32N 40°46' W 074°00'5 4.8
2015-Jan-23 11:34N 40°42' W 074°01'4 0.3
2015-Jan-22 22:31N 40°46' W 074°01'0 0.1
2015-Jan-22 21:32N 40°45' W 074°01'1 0.8
2015-Jan-22 20:23N 40°46' W 074°01'25 1.3
2015-Jan-22 01:31N 41°12' W 073°57'0 0.3
2015-Jan-22 00:34N 41°12' W 073°57'2 1.4
2015-Jan-21 23:27N 41°11' W 073°55'2 2.4
2015-Jan-21 22:50N 41°12' W 073°57'3 4.7
2015-Jan-21 22:16N 41°10' W 073°54'0 0.1
2015-Jan-21 21:27N 41°10' W 073°54'  

Dump ship's entire track history